createdAt,value
2023-02-25T00:01:19.833Z,-4.40
2023-02-25T00:03:47.162Z,-4.34
2023-02-25T00:06:15.600Z,-4.33
2023-02-25T00:08:46.557Z,-4.25
2023-02-25T00:11:15.432Z,-4.28
2023-02-25T00:13:43.685Z,-4.29
2023-02-25T00:16:12.019Z,-4.30
2023-02-25T00:18:41.320Z,-4.29
2023-02-25T00:21:15.633Z,-4.33
2023-02-25T00:23:49.793Z,-4.31
2023-02-25T00:26:17.903Z,-4.26
2023-02-25T00:28:49.010Z,-4.30
2023-02-25T00:31:24.213Z,-4.23
2023-02-25T00:33:53.792Z,-4.24
2023-02-25T00:36:24.060Z,-4.19
2023-02-25T00:38:54.495Z,-4.16
2023-02-25T00:41:27.252Z,-4.16
2023-02-25T00:43:58.910Z,-4.17
2023-02-25T00:46:26.813Z,-4.16
2023-02-25T00:48:54.229Z,-4.14
2023-02-25T00:51:29.157Z,-4.16
2023-02-25T00:54:00.358Z,-4.19
2023-02-25T00:56:29.726Z,-4.22
2023-02-25T00:58:58.296Z,-4.17
2023-02-25T01:01:28.198Z,-4.11
2023-02-25T01:03:56.977Z,-4.06
2023-02-25T01:06:26.451Z,-4.05
2023-02-25T01:08:58.116Z,-4.11
2023-02-25T01:11:29.573Z,-4.08
2023-02-25T01:13:58.215Z,-4.10
2023-02-25T01:16:27.762Z,-4.11
2023-02-25T01:19:00.020Z,-4.03
2023-02-25T01:21:35.446Z,-3.99
2023-02-25T01:24:09.035Z,-4.03
2023-02-25T01:26:39.108Z,-3.97
2023-02-25T01:29:08.198Z,-3.97
2023-02-25T01:31:35.315Z,-3.95
2023-02-25T01:34:03.592Z,-4.02
2023-02-25T01:36:32.051Z,-4.01
2023-02-25T01:39:01.908Z,-3.93
2023-02-25T01:41:31.282Z,-4.01
2023-02-25T01:44:08.990Z,-3.90
2023-02-25T01:46:40.968Z,-3.86
2023-02-25T01:49:32.803Z,-3.85
2023-02-25T01:52:05.059Z,-3.83
2023-02-25T01:54:33.304Z,-3.88
2023-02-25T01:57:00.670Z,-3.88
2023-02-25T01:59:29.677Z,-3.90
2023-02-25T02:01:56.830Z,-3.88
2023-02-25T02:04:27.540Z,-3.96
2023-02-25T02:06:55.035Z,-3.88
2023-02-25T02:09:28.096Z,-3.77
2023-02-25T02:12:03.078Z,-3.78
2023-02-25T02:14:36.219Z,-3.82
2023-02-25T02:17:16.056Z,-3.86
2023-02-25T02:19:56.486Z,-3.87
2023-02-25T02:22:51.214Z,-3.88
2023-02-25T02:25:53.430Z,-3.89
2023-02-25T02:28:44.932Z,-3.92
2023-02-25T02:31:49.625Z,-3.89
2023-02-25T02:34:19.843Z,-3.90
2023-02-25T02:37:14.064Z,-3.87
2023-02-25T02:40:12.059Z,-3.92
2023-02-25T02:42:46.503Z,-3.93
2023-02-25T02:45:36.791Z,-3.90
2023-02-25T02:48:08.957Z,-3.87
2023-02-25T02:50:46.899Z,-3.81
2023-02-25T02:53:22.750Z,-3.79
2023-02-25T02:55:54.901Z,-3.76
2023-02-25T02:58:33.256Z,-3.75
2023-02-25T03:01:07.518Z,-3.75
2023-02-25T03:03:41.897Z,-3.68
2023-02-25T03:06:11.848Z,-3.68
2023-02-25T03:09:02.942Z,-3.63
2023-02-25T03:11:36.107Z,-3.65
2023-02-25T03:14:03.433Z,-3.66
2023-02-25T03:16:45.650Z,-3.63
2023-02-25T03:19:18.559Z,-3.62
2023-02-25T03:21:53.096Z,-3.57
2023-02-25T03:24:23.466Z,-3.54
2023-02-25T03:26:52.353Z,-3.53
2023-02-25T03:29:24.218Z,-3.45
2023-02-25T03:31:58.793Z,-3.41
2023-02-25T03:34:31.723Z,-3.45
2023-02-25T03:37:04.953Z,-3.38
2023-02-25T03:39:36.685Z,-3.37
2023-02-25T03:42:05.875Z,-3.37
2023-02-25T03:44:37.985Z,-3.38
2023-02-25T03:47:06.378Z,-3.38
2023-02-25T03:49:38.425Z,-3.36
2023-02-25T03:52:12.057Z,-3.32
2023-02-25T03:54:39.126Z,-3.33
2023-02-25T03:57:06.499Z,-3.29
2023-02-25T03:59:33.563Z,-3.25
2023-02-25T04:02:01.134Z,-3.23
2023-02-25T04:04:28.544Z,-3.22
2023-02-25T04:06:55.892Z,-3.17
2023-02-25T04:09:22.954Z,-3.14
2023-02-25T04:11:50.505Z,-3.22
2023-02-25T04:14:18.511Z,-3.15
2023-02-25T04:16:46.974Z,-3.13
2023-02-25T04:19:14.036Z,-3.09
2023-02-25T04:21:42.495Z,-3.10
2023-02-25T04:24:11.011Z,-3.10
2023-02-25T04:26:38.091Z,-3.12
2023-02-25T04:29:05.234Z,-3.13
2023-02-25T04:31:32.570Z,-3.11
2023-02-25T04:33:59.673Z,-3.10
2023-02-25T04:36:35.490Z,-3.10
2023-02-25T04:39:05.025Z,-3.07
2023-02-25T04:41:34.400Z,-3.00
2023-02-25T04:44:04.093Z,-2.98
2023-02-25T04:46:36.153Z,-3.00
2023-02-25T04:49:03.704Z,-2.99
2023-02-25T04:51:30.650Z,-2.95
2023-02-25T04:53:57.850Z,-2.92
2023-02-25T04:56:25.194Z,-2.90
2023-02-25T04:58:52.594Z,-2.87
2023-02-25T05:01:20.104Z,-2.85
2023-02-25T05:03:47.109Z,-2.78
2023-02-25T05:06:14.191Z,-2.77
2023-02-25T05:08:41.586Z,-2.74
2023-02-25T05:11:08.583Z,-2.73
2023-02-25T05:13:35.552Z,-2.65
2023-02-25T05:16:10.697Z,-2.62
2023-02-25T05:18:41.489Z,-2.63
2023-02-25T05:21:10.118Z,-2.58
2023-02-25T05:23:37.140Z,-2.53
2023-02-25T05:26:04.418Z,-2.49
2023-02-25T05:28:31.746Z,-2.45
2023-02-25T05:30:59.168Z,-2.41
2023-02-25T05:33:27.338Z,-2.37
2023-02-25T05:35:55.333Z,-2.32
2023-02-25T05:38:22.417Z,-2.35
2023-02-25T05:40:49.509Z,-2.28
2023-02-25T05:43:16.508Z,-2.26
2023-02-25T05:45:43.502Z,-2.23
2023-02-25T05:48:10.464Z,-2.21
2023-02-25T05:50:41.867Z,-2.27
2023-02-25T05:53:09.933Z,-2.27
2023-02-25T05:55:42.962Z,-2.21
2023-02-25T05:58:10.123Z,-2.15
2023-02-25T06:00:37.979Z,-2.11
2023-02-25T06:03:05.574Z,-2.08
2023-02-25T06:05:32.628Z,-2.01
2023-02-25T06:07:59.987Z,-2.00
2023-02-25T06:10:27.606Z,-1.96
2023-02-25T06:12:58.308Z,-1.91
2023-02-25T06:15:25.600Z,-1.94
2023-02-25T06:17:52.691Z,-1.91
2023-02-25T06:20:19.728Z,-1.88
2023-02-25T06:22:46.959Z,-1.78
2023-02-25T06:25:13.942Z,-1.69
2023-02-25T06:27:42.882Z,-1.57
2023-02-25T06:30:10.703Z,-1.49
2023-02-25T06:32:37.891Z,-1.46
2023-02-25T06:35:06.780Z,-1.47
2023-02-25T06:37:34.825Z,-1.44
2023-02-25T06:40:01.747Z,-1.37
2023-02-25T06:42:30.282Z,-1.32
2023-02-25T06:44:57.293Z,-1.34
2023-02-25T06:47:24.251Z,-1.33
2023-02-25T06:49:51.179Z,-1.33
2023-02-25T06:52:18.167Z,-1.31
2023-02-25T06:54:45.184Z,-1.35
2023-02-25T06:57:12.098Z,-1.25
2023-02-25T06:59:39.106Z,-1.21
2023-02-25T07:02:06.910Z,-1.14
2023-02-25T07:04:33.936Z,-1.04
2023-02-25T07:07:01.014Z,-0.99
2023-02-25T07:09:28.091Z,-0.95
2023-02-25T07:11:55.151Z,-0.92
2023-02-25T07:14:22.207Z,-0.86
2023-02-25T07:16:49.686Z,-0.81
2023-02-25T07:19:17.481Z,-0.73
2023-02-25T07:21:44.881Z,-0.66
2023-02-25T07:24:12.808Z,-0.63
2023-02-25T07:26:40.057Z,-0.63
2023-02-25T07:29:07.059Z,-0.58
2023-02-25T07:31:34.314Z,-0.50
2023-02-25T07:34:03.653Z,-0.43
2023-02-25T07:36:33.691Z,-0.27
2023-02-25T07:39:02.128Z,-0.08
2023-02-25T07:41:30.400Z,0.02
2023-02-25T07:44:03.480Z,0.14
2023-02-25T07:46:30.885Z,0.15
2023-02-25T07:48:58.372Z,0.11
2023-02-25T07:51:26.246Z,0.05
2023-02-25T07:53:55.696Z,0.02
2023-02-25T07:56:25.659Z,0.03
2023-02-25T07:58:52.750Z,0.02
2023-02-25T08:01:31.902Z,0.09
2023-02-25T08:04:04.494Z,0.25
2023-02-25T08:06:35.246Z,0.40
2023-02-25T08:09:02.812Z,0.56
2023-02-25T08:11:33.565Z,0.62
2023-02-25T08:14:02.906Z,0.76
2023-02-25T08:16:33.521Z,0.81
2023-02-25T08:19:00.800Z,0.82
2023-02-25T08:21:30.261Z,0.71
2023-02-25T08:24:01.532Z,0.61
2023-02-25T08:26:33.730Z,0.57
2023-02-25T08:29:03.940Z,0.52
2023-02-25T08:31:31.664Z,0.57
2023-02-25T08:33:59.770Z,0.64
2023-02-25T08:36:30.816Z,0.51
2023-02-25T08:39:01.051Z,0.59
2023-02-25T08:41:32.402Z,0.62
2023-02-25T08:44:01.368Z,0.48
2023-02-25T08:46:33.226Z,0.55
2023-02-25T08:49:03.087Z,0.49
2023-02-25T08:51:34.461Z,0.45
2023-02-25T08:54:07.416Z,0.45
2023-02-25T08:56:44.615Z,0.51
2023-02-25T08:59:22.200Z,0.47
2023-02-25T09:01:50.597Z,0.54
2023-02-25T09:04:23.262Z,0.57
2023-02-25T09:06:54.767Z,0.46
2023-02-25T09:09:22.388Z,0.47
2023-02-25T09:11:50.216Z,0.48
2023-02-25T09:14:17.941Z,0.67
2023-02-25T09:16:45.183Z,0.84
2023-02-25T09:19:12.728Z,0.98
2023-02-25T09:21:42.926Z,0.93
2023-02-25T09:24:10.681Z,0.96
2023-02-25T09:26:38.104Z,0.90
2023-02-25T09:29:10.078Z,0.94
2023-02-25T09:31:41.410Z,1.00
2023-02-25T09:34:20.188Z,1.01
2023-02-25T09:36:50.090Z,1.21
2023-02-25T09:39:21.286Z,1.33
2023-02-25T09:41:57.166Z,1.38
2023-02-25T09:44:29.467Z,1.33
2023-02-25T09:47:10.432Z,1.53
2023-02-25T09:50:11.005Z,1.71
2023-02-25T09:52:47.952Z,1.78
2023-02-25T09:55:33.753Z,1.77
2023-02-25T09:58:10.874Z,1.78
2023-02-25T10:00:47.033Z,1.64
2023-02-25T10:03:29.661Z,1.62
2023-02-25T10:06:03.659Z,1.65
2023-02-25T10:08:54.829Z,1.71
2023-02-25T10:11:59.009Z,1.59
2023-02-25T10:14:43.349Z,1.64
2023-02-25T10:17:46.195Z,1.62
2023-02-25T10:20:39.372Z,1.44
2023-02-25T10:23:36.596Z,1.45
2023-02-25T10:26:21.730Z,1.46
2023-02-25T10:28:54.565Z,1.36
2023-02-25T10:31:26.015Z,1.35
2023-02-25T10:33:56.666Z,1.32
2023-02-25T10:37:05.264Z,1.43
2023-02-25T10:39:33.130Z,1.37
2023-02-25T10:42:00.622Z,1.35
2023-02-25T10:44:31.268Z,1.42
2023-02-25T10:47:05.264Z,1.48
2023-02-25T10:49:38.637Z,1.56
2023-02-25T10:52:20.660Z,1.70
2023-02-25T10:54:51.495Z,1.77
2023-02-25T10:57:36.949Z,1.65
2023-02-25T11:00:13.463Z,1.70
2023-02-25T11:02:43.330Z,1.71
2023-02-25T11:05:41.360Z,1.76
2023-02-25T11:08:31.375Z,1.59
2023-02-25T11:11:06.555Z,1.44
2023-02-25T11:13:37.482Z,1.43
2023-02-25T11:16:12.697Z,1.40
2023-02-25T11:18:44.539Z,1.35
2023-02-25T11:21:19.133Z,1.30
2023-02-25T11:23:47.407Z,1.32
2023-02-25T11:26:39.495Z,1.41
2023-02-25T11:29:26.073Z,1.41
2023-02-25T11:32:01.856Z,1.44
2023-02-25T11:34:32.452Z,1.42
2023-02-25T11:37:25.630Z,1.48
2023-02-25T11:39:56.706Z,1.42
2023-02-25T11:42:30.645Z,1.42
2023-02-25T11:45:03.463Z,1.45
2023-02-25T11:47:38.935Z,1.54
2023-02-25T11:50:19.064Z,1.62
2023-02-25T11:53:13.782Z,1.68
2023-02-25T11:55:47.130Z,1.62
2023-02-25T11:58:30.493Z,1.55
2023-02-25T12:01:02.205Z,1.48
2023-02-25T12:03:43.690Z,1.45
2023-02-25T12:06:37.619Z,1.45
2023-02-25T12:09:28.693Z,1.38
2023-02-25T12:12:13.783Z,1.41
2023-02-25T12:14:55.876Z,1.48
2023-02-25T12:17:44.569Z,1.54
2023-02-25T12:20:52.263Z,1.43
2023-02-25T12:23:43.514Z,1.34
2023-02-25T12:26:53.923Z,1.26
2023-02-25T12:29:34.032Z,1.19
2023-02-25T12:32:28.236Z,1.10
2023-02-25T12:35:27.243Z,1.09
2023-02-25T12:38:24.362Z,1.06
2023-02-25T12:40:59.960Z,0.99
2023-02-25T12:43:40.425Z,0.99
2023-02-25T12:46:45.184Z,0.94
2023-02-25T12:49:26.043Z,0.86
2023-02-25T12:52:15.978Z,0.96
2023-02-25T12:54:59.519Z,0.89
2023-02-25T12:57:50.204Z,0.72
2023-02-25T13:00:32.558Z,0.72
2023-02-25T13:03:31.851Z,0.75
2023-02-25T13:06:24.600Z,0.69
2023-02-25T13:09:29.310Z,0.64
2023-02-25T13:12:11.511Z,0.60
2023-02-25T13:14:45.122Z,0.54
2023-02-25T13:17:46.042Z,0.55
2023-02-25T13:20:31.649Z,0.55
2023-02-25T13:23:26.348Z,0.55
2023-02-25T13:26:09.478Z,0.55
2023-02-25T13:28:51.762Z,0.58
2023-02-25T13:31:35.000Z,0.51
2023-02-25T13:34:38.359Z,0.53
2023-02-25T13:37:52.929Z,0.42
2023-02-25T13:40:35.482Z,0.51
2023-02-25T13:43:28.791Z,0.51
2023-02-25T13:46:14.195Z,0.48
2023-02-25T13:49:06.344Z,0.50
2023-02-25T13:52:12.735Z,0.50
2023-02-25T13:55:01.130Z,0.49
2023-02-25T13:57:53.854Z,0.50
2023-02-25T14:00:39.849Z,0.50
2023-02-25T14:03:27.409Z,0.48
2023-02-25T14:06:00.547Z,0.45
2023-02-25T14:08:59.635Z,0.49
2023-02-25T14:11:46.885Z,0.45
2023-02-25T14:14:50.544Z,0.42
2023-02-25T14:17:39.480Z,0.28
2023-02-25T14:20:57.336Z,0.38
2023-02-25T14:23:52.664Z,0.36
2023-02-25T14:26:51.964Z,0.37
2023-02-25T14:29:23.628Z,0.26
2023-02-25T14:32:22.206Z,0.32
2023-02-25T14:35:21.462Z,0.31
2023-02-25T14:38:09.790Z,0.29
2023-02-25T14:41:23.461Z,0.23
2023-02-25T14:43:55.489Z,0.26
2023-02-25T14:46:36.140Z,0.31
2023-02-25T14:49:26.671Z,0.31
2023-02-25T14:52:12.795Z,0.32
2023-02-25T14:54:51.641Z,0.31
2023-02-25T14:57:58.867Z,0.34
2023-02-25T15:00:47.539Z,0.33
2023-02-25T15:03:51.507Z,0.34
2023-02-25T15:06:37.980Z,0.34
2023-02-25T15:09:12.096Z,0.34
2023-02-25T15:12:16.024Z,0.31
2023-02-25T15:14:56.807Z,0.34
2023-02-25T15:17:44.633Z,0.34
2023-02-25T15:20:36.522Z,0.34
2023-02-25T15:23:12.137Z,0.31
2023-02-25T15:25:44.666Z,0.29
2023-02-25T15:28:30.360Z,0.31
2023-02-25T15:31:00.981Z,0.27
2023-02-25T15:33:47.677Z,0.15
2023-02-25T15:36:18.659Z,0.22
2023-02-25T15:38:53.446Z,0.21
2023-02-25T15:41:26.985Z,0.18
2023-02-25T15:43:55.262Z,0.18
2023-02-25T15:46:34.472Z,0.19
2023-02-25T15:49:25.673Z,0.18
2023-02-25T15:51:55.377Z,0.17
2023-02-25T15:54:28.476Z,0.19
2023-02-25T15:56:59.071Z,0.17
2023-02-25T15:59:49.298Z,0.17
2023-02-25T16:02:33.674Z,0.14
2023-02-25T16:05:20.690Z,0.15
2023-02-25T16:08:08.263Z,0.12
2023-02-25T16:10:40.890Z,0.13
2023-02-25T16:13:16.544Z,0.04
2023-02-25T16:15:49.104Z,0.04
2023-02-25T16:18:22.012Z,0.05
2023-02-25T16:20:51.685Z,-0.01
2023-02-25T16:23:19.475Z,-0.03
2023-02-25T16:26:11.072Z,-0.06
2023-02-25T16:28:43.667Z,0.01
2023-02-25T16:31:22.057Z,-0.03
2023-02-25T16:33:57.171Z,-0.08
2023-02-25T16:36:48.709Z,-0.06
2023-02-25T16:39:23.710Z,-0.05
2023-02-25T16:41:52.487Z,-0.15
2023-02-25T16:44:22.987Z,-0.13
2023-02-25T16:46:52.976Z,-0.14
2023-02-25T16:49:36.645Z,-0.06
2023-02-25T16:52:55.368Z,-0.06
2023-02-25T16:55:31.589Z,-0.20
2023-02-25T16:58:06.903Z,-0.09
2023-02-25T17:00:34.866Z,-0.08
2023-02-25T17:03:05.653Z,-0.13
2023-02-25T17:05:36.721Z,-0.06
2023-02-25T17:08:07.293Z,-0.10
2023-02-25T17:10:48.893Z,0.02
2023-02-25T17:13:25.189Z,0.02
2023-02-25T17:15:53.905Z,-0.13
2023-02-25T17:18:31.432Z,-0.10
2023-02-25T17:21:20.590Z,0.03
2023-02-25T17:23:47.962Z,-0.05
2023-02-25T17:26:16.472Z,0.06
2023-02-25T17:28:45.604Z,-0.04
2023-02-25T17:31:20.525Z,0.03
2023-02-25T17:33:48.758Z,0.03
2023-02-25T17:36:19.149Z,-0.06
2023-02-25T17:38:47.026Z,-0.10
2023-02-25T17:41:18.274Z,-0.06
2023-02-25T17:43:45.500Z,-0.02
2023-02-25T17:46:15.335Z,-0.04
2023-02-25T17:48:45.387Z,-0.19
2023-02-25T17:51:13.883Z,-0.07
2023-02-25T17:54:03.726Z,-0.13
2023-02-25T17:56:32.653Z,-0.10
2023-02-25T17:59:39.075Z,-0.08
2023-02-25T18:02:33.178Z,-0.06
2023-02-25T18:05:12.517Z,-0.05
2023-02-25T18:07:40.283Z,-0.09
2023-02-25T18:10:27.573Z,-0.15
2023-02-25T18:12:55.754Z,-0.10
2023-02-25T18:15:25.972Z,-0.06
2023-02-25T18:17:58.197Z,-0.13
2023-02-25T18:20:33.872Z,-0.07
2023-02-25T18:23:22.095Z,-0.09
2023-02-25T18:25:56.909Z,-0.12
2023-02-25T18:28:24.282Z,-0.32
2023-02-25T18:30:52.721Z,-0.16
2023-02-25T18:33:23.026Z,-0.20
2023-02-25T18:35:50.493Z,-0.23
2023-02-25T18:38:22.657Z,-0.24
2023-02-25T18:40:50.700Z,-0.33
2023-02-25T18:43:23.497Z,-0.28
2023-02-25T18:45:58.726Z,-0.30
2023-02-25T18:48:26.499Z,-0.39
2023-02-25T18:50:55.005Z,-0.30
2023-02-25T18:53:23.945Z,-0.35
2023-02-25T18:55:52.261Z,-0.30
2023-02-25T18:58:21.943Z,-0.38
2023-02-25T19:01:09.209Z,-0.39
2023-02-25T19:03:40.628Z,-0.38
2023-02-25T19:06:09.215Z,-0.47
2023-02-25T19:08:36.454Z,-0.39
2023-02-25T19:11:05.430Z,-0.41
2023-02-25T19:13:39.093Z,-0.39
2023-02-25T19:16:06.932Z,-0.51
2023-02-25T19:18:34.447Z,-0.43
2023-02-25T19:21:01.823Z,-0.40
2023-02-25T19:23:29.349Z,-0.35
2023-02-25T19:26:00.894Z,-0.38
2023-02-25T19:28:28.398Z,-0.43
2023-02-25T19:30:55.866Z,-0.40
2023-02-25T19:33:23.134Z,-0.44
2023-02-25T19:35:50.305Z,-0.44
2023-02-25T19:38:18.786Z,-0.48
2023-02-25T19:40:47.851Z,-0.39
2023-02-25T19:43:16.399Z,-0.47
2023-02-25T19:45:44.022Z,-0.47
2023-02-25T19:48:12.140Z,-0.38
2023-02-25T19:50:41.377Z,-0.45
2023-02-25T19:53:08.717Z,-0.46
2023-02-25T19:55:38.871Z,-0.50
2023-02-25T19:58:06.513Z,-0.60
2023-02-25T20:00:33.814Z,-0.45
2023-02-25T20:03:04.573Z,-0.45
2023-02-25T20:05:31.838Z,-0.48
2023-02-25T20:07:59.114Z,-0.45
2023-02-25T20:10:26.092Z,-0.50
2023-02-25T20:12:53.287Z,-0.60
2023-02-25T20:15:20.579Z,-0.60
2023-02-25T20:17:48.189Z,-0.56
2023-02-25T20:20:19.197Z,-0.44
2023-02-25T20:22:46.475Z,-0.52
2023-02-25T20:25:13.754Z,-0.56
2023-02-25T20:27:43.849Z,-0.53
2023-02-25T20:30:16.372Z,-0.50
2023-02-25T20:32:45.339Z,-0.50
2023-02-25T20:35:22.120Z,-0.41
2023-02-25T20:38:09.343Z,-0.38
2023-02-25T20:40:36.874Z,-0.41
2023-02-25T20:43:04.157Z,-0.39
2023-02-25T20:45:31.826Z,-0.42
2023-02-25T20:47:59.485Z,-0.50
2023-02-25T20:50:28.960Z,-0.52
2023-02-25T20:52:56.485Z,-0.42
2023-02-25T20:55:25.934Z,-0.42
2023-02-25T20:57:53.272Z,-0.56
2023-02-25T21:00:22.086Z,-0.54
2023-02-25T21:02:51.531Z,-0.47
2023-02-25T21:05:18.770Z,-0.49
2023-02-25T21:07:45.993Z,-0.45
2023-02-25T21:10:13.115Z,-0.50
2023-02-25T21:12:41.278Z,-0.48
2023-02-25T21:15:09.128Z,-0.45
2023-02-25T21:17:36.399Z,-0.45
2023-02-25T21:20:06.974Z,-0.42
2023-02-25T21:22:34.304Z,-0.50
2023-02-25T21:25:02.124Z,-0.46
2023-02-25T21:27:30.969Z,-0.42
2023-02-25T21:29:57.975Z,-0.55
2023-02-25T21:32:25.156Z,-0.44
2023-02-25T21:34:52.553Z,-0.37
2023-02-25T21:37:20.150Z,-0.46
2023-02-25T21:39:47.202Z,-0.49
2023-02-25T21:42:14.236Z,-0.37
2023-02-25T21:44:41.234Z,-0.33
2023-02-25T21:47:08.393Z,-0.42
2023-02-25T21:49:40.792Z,-0.34
2023-02-25T21:52:07.977Z,-0.31
2023-02-25T21:54:34.917Z,-0.35
2023-02-25T21:57:02.005Z,-0.33
2023-02-25T21:59:29.398Z,-0.39
2023-02-25T22:01:56.629Z,-0.32
2023-02-25T22:04:23.787Z,-0.35
2023-02-25T22:06:50.871Z,-0.31
2023-02-25T22:09:20.807Z,-0.29
2023-02-25T22:11:47.859Z,-0.28
2023-02-25T22:14:14.937Z,-0.40
2023-02-25T22:16:41.994Z,-0.30
2023-02-25T22:19:09.244Z,-0.32
2023-02-25T22:21:38.963Z,-0.29
2023-02-25T22:24:06.322Z,-0.32
2023-02-25T22:26:35.134Z,-0.27
2023-02-25T22:29:06.143Z,-0.27
2023-02-25T22:31:34.365Z,-0.44
2023-02-25T22:34:02.423Z,-0.29
2023-02-25T22:36:38.118Z,-0.33
2023-02-25T22:39:13.127Z,-0.33
2023-02-25T22:41:40.858Z,-0.31
2023-02-25T22:44:08.155Z,-0.34
2023-02-25T22:46:41.259Z,-0.43
2023-02-25T22:49:09.154Z,-0.34
2023-02-25T22:51:40.716Z,-0.38
2023-02-25T22:54:11.285Z,-0.34
2023-02-25T22:56:39.347Z,-0.48
2023-02-25T22:59:07.427Z,-0.46
2023-02-25T23:01:34.824Z,-0.41
2023-02-25T23:04:02.382Z,-0.45
2023-02-25T23:06:42.886Z,-0.38
2023-02-25T23:09:11.271Z,-0.53
2023-02-25T23:11:40.503Z,-0.33
2023-02-25T23:14:07.580Z,-0.34
2023-02-25T23:16:41.015Z,-0.37
2023-02-25T23:19:10.690Z,-0.41
2023-02-25T23:21:38.930Z,-0.40
2023-02-25T23:24:13.817Z,-0.38
2023-02-25T23:26:42.079Z,-0.37
2023-02-25T23:29:10.977Z,-0.48
2023-02-25T23:31:42.456Z,-0.35
2023-02-25T23:34:15.544Z,-0.35
2023-02-25T23:36:45.514Z,-0.35
2023-02-25T23:39:14.183Z,-0.31
2023-02-25T23:41:43.100Z,-0.29
2023-02-25T23:44:11.585Z,-0.30
2023-02-25T23:46:41.601Z,-0.32
2023-02-25T23:49:09.334Z,-0.33
2023-02-25T23:51:36.981Z,-0.34
2023-02-25T23:54:05.861Z,-0.33
2023-02-25T23:56:33.387Z,-0.39
2023-02-25T23:59:00.624Z,-0.30
